Pagina principale
METAR-TAF:

METAR-TAF

Aeroporti :

Aeroporto Internazionale di Larnaca

Larnaca, Cipro

latitudine: 34-53N, longitudine: 033-38E, altezza: 2 m

Osservazione

Il bollettino è stato emesso 28 minuti fa, alle 00:30 UTC
Vento 3 kt da nord-ovest
Temperature 23°C
Umidità 83%
Pressione 1005 hPa
Visibilità 10 km o più
nessuna nube inferiore a 1500 m e nessun cumulonembo

METAR: LCLK 160030Z 32003KT CAVOK 23/20 Q1005 NOSIG

Ora: 03:58 (00:58 UTC)

Previsione

Il bollettino è stato emesso 1 ora e 28 minuti fa, alle 23:30 UTC
Previsione valida dal 16 alle 00 UTC al 16 alle 24 UTC
Vento 6 kt da ovest/nord-ovest
Visibilità 10 km o più
Poco nuvoloso ad un'altezza di 3000 ft
Evoluzione graduale
dal 16 alle 08 UTC al 16 alle 11 UTC
Vento 18 kt da sud/sud-ovest
Evoluzione graduale
dal 16 alle 19 UTC al 16 alle 23 UTC
Vento 6 kt da ovest/sud-ovest

TAF: LCLK 152330Z 1600/1624 30006KT 9999 FEW030 BECMG 1608/1611 21018KT BECMG 1619/1623 25006KT

Osservazioni e previsioni meteorologiche di più di 4000 aeroporti (messaggi METAR e TAF).

Le stazioni disponibili sono rappresentate dai dischi gialli e rossi sulla carta.

Puntare il mouse per vedere il nome della stazione.

Clicca sopra per visualizzare le osservazioni e previsioni meteorologiche.

Per cambiare la mappa : fare clic sui pulsanti verdi con una croce nera per ingrandire, il pulsante verde con un trattino per diminuire, o sulla freccia verde per le mappe adiacenti.


METAR-TAF: